sensor_id;sensor_type;location;lat;lon;timestamp;pressure;altitude;pressure_sealevel;temperature;humidity
17781;BME280;8498;52.516;13.790;2023-03-19T00:01:54;100880.97;;;8.42;83.47
17781;BME280;8498;52.516;13.790;2023-03-19T00:07:17;100877.84;;;8.35;83.43
17781;BME280;8498;52.516;13.790;2023-03-19T00:12:39;100873.09;;;8.25;83.27
17781;BME280;8498;52.516;13.790;2023-03-19T00:18:02;100869.94;;;8.18;83.79
17781;BME280;8498;52.516;13.790;2023-03-19T00:23:26;100865.50;;;8.19;84.05
17781;BME280;8498;52.516;13.790;2023-03-19T00:28:48;100864.56;;;8.20;83.89
17781;BME280;8498;52.516;13.790;2023-03-19T00:34:11;100862.25;;;8.14;84.15
17781;BME280;8498;52.516;13.790;2023-03-19T00:39:34;100872.41;;;8.05;84.18
17781;BME280;8498;52.516;13.790;2023-03-19T00:44:57;100862.66;;;7.90;85.11
17781;BME280;8498;52.516;13.790;2023-03-19T00:50:19;100858.28;;;7.89;84.97
17781;BME280;8498;52.516;13.790;2023-03-19T00:55:42;100858.47;;;7.86;85.22
17781;BME280;8498;52.516;13.790;2023-03-19T01:01:04;100856.63;;;7.88;85.22
17781;BME280;8498;52.516;13.790;2023-03-19T01:06:27;100856.94;;;7.82;85.12
17781;BME280;8498;52.516;13.790;2023-03-19T01:11:50;100863.41;;;7.77;84.97
17781;BME280;8498;52.516;13.790;2023-03-19T01:17:12;100877.19;;;7.66;85.38
17781;BME280;8498;52.516;13.790;2023-03-19T01:22:35;100880.94;;;7.62;84.86
17781;BME280;8498;52.516;13.790;2023-03-19T01:27:59;100868.97;;;7.55;86.01
17781;BME280;8498;52.516;13.790;2023-03-19T01:33:21;100880.34;;;7.57;85.48
17781;BME280;8498;52.516;13.790;2023-03-19T01:38:55;100881.41;;;7.53;85.17
17781;BME280;8498;52.516;13.790;2023-03-19T01:44:29;100883.34;;;7.49;86.34
17781;BME280;8498;52.516;13.790;2023-03-19T01:51:02;100882.34;;;7.52;86.07
17781;BME280;8498;52.516;13.790;2023-03-19T01:56:31;100888.28;;;7.57;85.47
17781;BME280;8498;52.516;13.790;2023-03-19T02:02:14;100887.41;;;7.56;85.73
17781;BME280;8498;52.516;13.790;2023-03-19T02:07:39;100874.19;;;7.56;85.72
17781;BME280;8498;52.516;13.790;2023-03-19T02:13:05;100869.84;;;7.55;85.90
17781;BME280;8498;52.516;13.790;2023-03-19T02:18:28;100874.25;;;7.55;85.42
17781;BME280;8498;52.516;13.790;2023-03-19T02:24:25;100870.13;;;7.49;85.65
17781;BME280;8498;52.516;13.790;2023-03-19T02:29:58;100872.34;;;7.41;85.92
17781;BME280;8498;52.516;13.790;2023-03-19T02:35:21;100869.47;;;7.46;85.57
17781;BME280;8498;52.516;13.790;2023-03-19T02:40:50;100876.28;;;7.50;85.83
17781;BME280;8498;52.516;13.790;2023-03-19T02:46:16;100879.41;;;7.58;84.87
17781;BME280;8498;52.516;13.790;2023-03-19T02:51:38;100871.19;;;7.47;85.38
17781;BME280;8498;52.516;13.790;2023-03-19T02:57:01;100876.28;;;7.50;85.49
17781;BME280;8498;52.516;13.790;2023-03-19T03:02:23;100870.84;;;7.53;86.19
17781;BME280;8498;52.516;13.790;2023-03-19T03:07:46;100865.91;;;7.62;85.79
17781;BME280;8498;52.516;13.790;2023-03-19T03:13:09;100861.25;;;7.67;85.43
17781;BME280;8498;52.516;13.790;2023-03-19T03:18:31;100847.84;;;7.70;85.14
17781;BME280;8498;52.516;13.790;2023-03-19T03:23:54;100868.69;;;7.77;84.84
17781;BME280;8498;52.516;13.790;2023-03-19T03:29:17;100884.00;;;7.87;84.19
17781;BME280;8498;52.516;13.790;2023-03-19T03:34:39;100881.34;;;7.87;84.24
17781;BME280;8498;52.516;13.790;2023-03-19T03:40:05;100880.88;;;7.79;84.67
17781;BME280;8498;52.516;13.790;2023-03-19T03:45:29;100866.13;;;7.75;85.29
17781;BME280;8498;52.516;13.790;2023-03-19T03:50:52;100867.66;;;7.79;84.44
17781;BME280;8498;52.516;13.790;2023-03-19T03:56:19;100872.94;;;7.79;84.35
17781;BME280;8498;52.516;13.790;2023-03-19T04:01:42;100890.53;;;7.80;83.88
17781;BME280;8498;52.516;13.790;2023-03-19T04:07:04;100878.22;;;7.96;83.19
17781;BME280;8498;52.516;13.790;2023-03-19T04:12:43;100888.16;;;7.91;82.63
17781;BME280;8498;52.516;13.790;2023-03-19T04:18:07;100900.63;;;7.89;82.75
17781;BME280;8498;52.516;13.790;2023-03-19T04:23:29;100910.38;;;7.89;82.35
17781;BME280;8498;52.516;13.790;2023-03-19T04:28:52;100908.97;;;7.82;82.48
17781;BME280;8498;52.516;13.790;2023-03-19T04:34:14;100926.19;;;7.73;82.78
17781;BME280;8498;52.516;13.790;2023-03-19T04:39:37;100930.94;;;7.66;83.13
17781;BME280;8498;52.516;13.790;2023-03-19T04:45:00;100930.03;;;7.83;82.81
17781;BME280;8498;52.516;13.790;2023-03-19T04:50:22;100940.03;;;7.78;83.33
17781;BME280;8498;52.516;13.790;2023-03-19T04:55:46;100942.81;;;7.75;84.01
17781;BME280;8498;52.516;13.790;2023-03-19T05:01:11;100939.84;;;7.81;82.79
17781;BME280;8498;52.516;13.790;2023-03-19T05:06:53;100939.19;;;7.93;82.37
17781;BME280;8498;52.516;13.790;2023-03-19T05:12:15;100933.13;;;7.91;82.30
17781;BME280;8498;52.516;13.790;2023-03-19T05:17:42;100936.72;;;7.90;82.69
17781;BME280;8498;52.516;13.790;2023-03-19T05:23:12;100940.28;;;7.89;82.78
17781;BME280;8498;52.516;13.790;2023-03-19T05:29:10;100952.59;;;7.90;83.30
17781;BME280;8498;52.516;13.790;2023-03-19T05:34:45;100950.41;;;7.98;83.02
17781;BME280;8498;52.516;13.790;2023-03-19T05:40:09;100946.66;;;8.02;83.01
17781;BME280;8498;52.516;13.790;2023-03-19T05:45:38;100947.28;;;8.07;83.40
17781;BME280;8498;52.516;13.790;2023-03-19T05:51:10;100946.50;;;8.05;84.17
17781;BME280;8498;52.516;13.790;2023-03-19T05:56:37;100949.16;;;8.21;83.95
17781;BME280;8498;52.516;13.790;2023-03-19T06:02:35;100944.16;;;8.32;83.29
17781;BME280;8498;52.516;13.790;2023-03-19T06:08:27;100933.53;;;8.50;82.82
17781;BME280;8498;52.516;13.790;2023-03-19T06:14:03;100929.00;;;8.67;81.67
17781;BME280;8498;52.516;13.790;2023-03-19T06:19:31;100913.94;;;8.83;80.48
17781;BME280;8498;52.516;13.790;2023-03-19T06:24:54;100913.31;;;8.94;79.71
17781;BME280;8498;52.516;13.790;2023-03-19T06:30:17;100911.59;;;9.09;79.19
17781;BME280;8498;52.516;13.790;2023-03-19T06:35:40;100919.84;;;9.18;78.28
17781;BME280;8498;52.516;13.790;2023-03-19T06:41:03;100921.63;;;9.34;77.33
17781;BME280;8498;52.516;13.790;2023-03-19T06:46:26;100931.19;;;9.50;77.70
17781;BME280;8498;52.516;13.790;2023-03-19T06:51:48;100925.28;;;9.75;77.24
17781;BME280;8498;52.516;13.790;2023-03-19T06:57:11;100922.34;;;9.94;75.19
17781;BME280;8498;52.516;13.790;2023-03-19T07:02:34;100939.53;;;10.17;74.17
17781;BME280;8498;52.516;13.790;2023-03-19T07:07:56;100954.97;;;10.39;72.95
17781;BME280;8498;52.516;13.790;2023-03-19T07:13:19;100948.25;;;10.47;72.54
17781;BME280;8498;52.516;13.790;2023-03-19T07:18:41;100975.94;;;10.57;71.90
17781;BME280;8498;52.516;13.790;2023-03-19T07:24:04;100981.69;;;10.78;70.99
17781;BME280;8498;52.516;13.790;2023-03-19T07:29:26;100997.50;;;10.80;70.46
17781;BME280;8498;52.516;13.790;2023-03-19T07:34:49;101015.81;;;10.84;70.48
17781;BME280;8498;52.516;13.790;2023-03-19T07:40:12;101049.16;;;10.76;71.88
17781;BME280;8498;52.516;13.790;2023-03-19T07:45:34;101055.00;;;10.95;71.73
17781;BME280;8498;52.516;13.790;2023-03-19T07:50:56;101057.56;;;10.96;72.20
17781;BME280;8498;52.516;13.790;2023-03-19T07:56:19;101054.50;;;11.17;72.10
17781;BME280;8498;52.516;13.790;2023-03-19T08:01:41;101061.44;;;11.46;72.28
17781;BME280;8498;52.516;13.790;2023-03-19T08:07:04;101061.34;;;11.87;73.89
17781;BME280;8498;52.516;13.790;2023-03-19T08:12:27;101034.75;;;12.00;73.83
17781;BME280;8498;52.516;13.790;2023-03-19T08:17:57;101014.75;;;12.07;73.15
17781;BME280;8498;52.516;13.790;2023-03-19T08:23:19;101004.31;;;12.04;74.02
17781;BME280;8498;52.516;13.790;2023-03-19T08:28:42;100997.41;;;12.14;74.19
17781;BME280;8498;52.516;13.790;2023-03-19T08:34:04;100983.41;;;12.36;75.29
17781;BME280;8498;52.516;13.790;2023-03-19T08:39:27;100987.06;;;12.71;75.23
17781;BME280;8498;52.516;13.790;2023-03-19T08:44:49;100978.22;;;13.07;75.21
17781;BME280;8498;52.516;13.790;2023-03-19T08:50:12;100987.19;;;13.30;74.52
17781;BME280;8498;52.516;13.790;2023-03-19T08:55:34;100996.34;;;13.39;73.37
17781;BME280;8498;52.516;13.790;2023-03-19T09:01:05;101011.13;;;13.67;72.62
17781;BME280;8498;52.516;13.790;2023-03-19T09:06:29;101037.91;;;13.54;72.48
17781;BME280;8498;52.516;13.790;2023-03-19T09:11:51;101095.59;;;13.07;74.92
17781;BME280;8498;52.516;13.790;2023-03-19T09:17:14;101084.00;;;12.83;75.22
17781;BME280;8498;52.516;13.790;2023-03-19T09:22:36;101120.78;;;12.53;77.29
17781;BME280;8498;52.516;13.790;2023-03-19T09:27:59;101104.47;;;12.57;77.43
17781;BME280;8498;52.516;13.790;2023-03-19T09:33:21;101100.22;;;12.42;80.76
17781;BME280;8498;52.516;13.790;2023-03-19T09:38:44;101095.44;;;12.34;80.82
17781;BME280;8498;52.516;13.790;2023-03-19T09:44:20;101086.22;;;12.26;83.29
17781;BME280;8498;52.516;13.790;2023-03-19T09:49:49;101056.38;;;12.08;87.53
17781;BME280;8498;52.516;13.790;2023-03-19T10:00:36;101011.88;;;11.58;96.75
17781;BME280;8498;52.516;13.790;2023-03-19T10:11:51;101011.22;;;11.81;98.50
17781;BME280;8498;52.516;13.790;2023-03-19T10:17:34;101002.59;;;12.03;95.58
17781;BME280;8498;52.516;13.790;2023-03-19T10:23:10;101008.66;;;11.80;97.66
17781;BME280;8498;52.516;13.790;2023-03-19T10:28:35;101009.00;;;11.73;98.77
17781;BME280;8498;52.516;13.790;2023-03-19T10:39:20;100998.66;;;11.96;100.00
17781;BME280;8498;52.516;13.790;2023-03-19T10:44:49;100982.56;;;12.23;99.73
17781;BME280;8498;52.516;13.790;2023-03-19T10:50:18;100975.59;;;12.58;99.32
17781;BME280;8498;52.516;13.790;2023-03-19T10:55:54;100971.19;;;12.70;99.45
17781;BME280;8498;52.516;13.790;2023-03-19T11:01:18;100986.78;;;12.63;98.49
17781;BME280;8498;52.516;13.790;2023-03-19T11:06:41;100989.53;;;12.74;98.92
17781;BME280;8498;52.516;13.790;2023-03-19T11:12:26;100994.59;;;12.90;97.82
17781;BME280;8498;52.516;13.790;2023-03-19T11:17:58;100986.22;;;13.07;98.04
17781;BME280;8498;52.516;13.790;2023-03-19T11:23:21;100967.41;;;13.09;99.68
17781;BME280;8498;52.516;13.790;2023-03-19T11:28:49;100960.25;;;13.09;100.00
17781;BME280;8498;52.516;13.790;2023-03-19T11:40:20;100940.66;;;13.34;98.52
17781;BME280;8498;52.516;13.790;2023-03-19T11:46:14;100930.91;;;13.57;97.98
17781;BME280;8498;52.516;13.790;2023-03-19T11:51:50;100921.97;;;13.80;96.13
17781;BME280;8498;52.516;13.790;2023-03-19T12:30:41;100946.41;;;15.40;84.84
17781;BME280;8498;52.516;13.790;2023-03-19T12:36:11;100941.69;;;15.64;83.14
17781;BME280;8498;52.516;13.790;2023-03-19T12:41:41;100945.53;;;15.92;82.55
17781;BME280;8498;52.516;13.790;2023-03-19T12:47:14;100943.06;;;16.10;80.85
17781;BME280;8498;52.516;13.790;2023-03-19T12:52:43;100943.91;;;16.41;80.09
17781;BME280;8498;52.516;13.790;2023-03-19T12:58:20;100933.88;;;16.73;76.47
17781;BME280;8498;52.516;13.790;2023-03-19T13:04:15;100938.63;;;17.00;73.83
17781;BME280;8498;52.516;13.790;2023-03-19T13:09:43;100936.91;;;17.09;71.24
17781;BME280;8498;52.516;13.790;2023-03-19T13:15:18;100928.72;;;17.20;73.20
17781;BME280;8498;52.516;13.790;2023-03-19T13:21:08;100925.03;;;17.79;70.28
17781;BME280;8498;52.516;13.790;2023-03-19T13:26:36;100928.19;;;17.65;69.03
17781;BME280;8498;52.516;13.790;2023-03-19T13:32:06;100929.13;;;17.44;69.10
17781;BME280;8498;52.516;13.790;2023-03-19T13:37:30;100921.34;;;17.60;68.54
17781;BME280;8498;52.516;13.790;2023-03-19T13:42:56;100922.94;;;17.73;67.01
17781;BME280;8498;52.516;13.790;2023-03-19T13:54:13;100912.31;;;17.61;66.14
17781;BME280;8498;52.516;13.790;2023-03-19T13:59:41;100911.88;;;17.56;65.65
17781;BME280;8498;52.516;13.790;2023-03-19T14:10:33;100917.81;;;17.60;66.89
17781;BME280;8498;52.516;13.790;2023-03-19T14:16:08;100908.50;;;17.54;65.27
17781;BME280;8498;52.516;13.790;2023-03-19T14:21:45;100904.13;;;17.53;65.54
17781;BME280;8498;52.516;13.790;2023-03-19T14:27:29;100893.66;;;17.50;64.48
17781;BME280;8498;52.516;13.790;2023-03-19T14:32:56;100896.47;;;17.58;65.56
17781;BME280;8498;52.516;13.790;2023-03-19T14:49:58;100887.31;;;17.51;63.60
17781;BME280;8498;52.516;13.790;2023-03-19T14:55:35;100894.38;;;17.52;64.21
17781;BME280;8498;52.516;13.790;2023-03-19T15:00:59;100893.22;;;17.45;61.34
17781;BME280;8498;52.516;13.790;2023-03-19T15:06:22;100885.75;;;17.49;60.51
17781;BME280;8498;52.516;13.790;2023-03-19T15:22:42;100892.84;;;17.31;61.49
17781;BME280;8498;52.516;13.790;2023-03-19T15:28:11;100896.25;;;17.23;61.51
17781;BME280;8498;52.516;13.790;2023-03-19T15:33:37;100887.34;;;17.22;61.66
17781;BME280;8498;52.516;13.790;2023-03-19T15:39:10;100892.28;;;17.17;61.51
17781;BME280;8498;52.516;13.790;2023-03-19T15:44:40;100891.88;;;17.12;62.30
17781;BME280;8498;52.516;13.790;2023-03-19T15:55:27;100895.09;;;17.06;63.27
17781;BME280;8498;52.516;13.790;2023-03-19T16:00:52;100894.09;;;16.98;64.02
17781;BME280;8498;52.516;13.790;2023-03-19T16:11:42;100902.34;;;16.56;75.35
17781;BME280;8498;52.516;13.790;2023-03-19T16:17:14;100907.41;;;16.40;77.42
17781;BME280;8498;52.516;13.790;2023-03-19T16:22:38;100910.56;;;16.24;79.16
17781;BME280;8498;52.516;13.790;2023-03-19T16:28:00;100923.34;;;16.11;79.37
17781;BME280;8498;52.516;13.790;2023-03-19T16:33:25;100925.25;;;15.99;80.65
17781;BME280;8498;52.516;13.790;2023-03-19T16:44:46;100929.94;;;15.76;81.69
17781;BME280;8498;52.516;13.790;2023-03-19T16:50:09;100924.53;;;15.67;81.74
17781;BME280;8498;52.516;13.790;2023-03-19T16:55:35;100930.69;;;15.47;81.83
17781;BME280;8498;52.516;13.790;2023-03-19T17:00:59;100925.44;;;15.24;82.71
17781;BME280;8498;52.516;13.790;2023-03-19T17:06:22;100938.47;;;15.18;82.72
17781;BME280;8498;52.516;13.790;2023-03-19T17:11:44;100943.16;;;15.04;82.77
17781;BME280;8498;52.516;13.790;2023-03-19T17:17:16;100947.19;;;14.88;82.97
17781;BME280;8498;52.516;13.790;2023-03-19T17:22:40;100950.41;;;14.71;83.36
17781;BME280;8498;52.516;13.790;2023-03-19T17:28:03;100952.38;;;14.57;84.08
17781;BME280;8498;52.516;13.790;2023-03-19T17:33:27;100955.44;;;14.42;84.27
17781;BME280;8498;52.516;13.790;2023-03-19T17:38:50;100950.19;;;14.29;84.80
17781;BME280;8498;52.516;13.790;2023-03-19T17:44:16;100956.47;;;14.17;85.03
17781;BME280;8498;52.516;13.790;2023-03-19T17:49:38;100963.63;;;14.05;85.62
17781;BME280;8498;52.516;13.790;2023-03-19T17:55:13;100969.59;;;13.98;85.91
17781;BME280;8498;52.516;13.790;2023-03-19T18:00:37;100969.56;;;13.86;86.02
17781;BME280;8498;52.516;13.790;2023-03-19T18:06:02;100967.22;;;13.82;85.68
17781;BME280;8498;52.516;13.790;2023-03-19T18:11:27;100973.97;;;13.64;85.80
17781;BME280;8498;52.516;13.790;2023-03-19T18:16:50;100983.72;;;13.41;86.81
17781;BME280;8498;52.516;13.790;2023-03-19T18:22:15;100988.06;;;13.31;86.73
17781;BME280;8498;52.516;13.790;2023-03-19T18:27:38;100993.22;;;13.21;87.37
17781;BME280;8498;52.516;13.790;2023-03-19T18:33:04;100991.09;;;13.13;87.70
17781;BME280;8498;52.516;13.790;2023-03-19T18:38:27;100986.34;;;13.06;87.94
17781;BME280;8498;52.516;13.790;2023-03-19T18:43:50;100992.00;;;13.01;88.29
17781;BME280;8498;52.516;13.790;2023-03-19T18:49:21;100998.63;;;12.96;88.31
17781;BME280;8498;52.516;13.790;2023-03-19T18:54:44;100998.75;;;12.94;88.58
17781;BME280;8498;52.516;13.790;2023-03-19T19:00:22;100998.97;;;12.91;88.80
17781;BME280;8498;52.516;13.790;2023-03-19T19:05:45;100998.22;;;12.89;89.23
17781;BME280;8498;52.516;13.790;2023-03-19T19:11:10;101007.63;;;12.82;89.68
17781;BME280;8498;52.516;13.790;2023-03-19T19:16:36;101015.84;;;12.79;89.20
17781;BME280;8498;52.516;13.790;2023-03-19T19:21:59;101020.44;;;12.77;89.84
17781;BME280;8498;52.516;13.790;2023-03-19T19:27:23;101024.41;;;12.71;90.18
17781;BME280;8498;52.516;13.790;2023-03-19T19:32:49;101027.50;;;12.65;90.96
17781;BME280;8498;52.516;13.790;2023-03-19T19:38:12;101027.81;;;12.61;91.30
17781;BME280;8498;52.516;13.790;2023-03-19T19:43:34;101024.00;;;12.65;91.58
17781;BME280;8498;52.516;13.790;2023-03-19T19:48:58;101037.75;;;12.59;92.08
17781;BME280;8498;52.516;13.790;2023-03-19T19:54:20;101038.19;;;12.53;92.45
17781;BME280;8498;52.516;13.790;2023-03-19T19:59:46;101041.16;;;12.48;92.79
17781;BME280;8498;52.516;13.790;2023-03-19T20:05:19;101037.88;;;12.44;93.04
17781;BME280;8498;52.516;13.790;2023-03-19T20:10:43;101034.66;;;12.39;92.73
17781;BME280;8498;52.516;13.790;2023-03-19T20:16:08;101048.19;;;12.36;92.87
17781;BME280;8498;52.516;13.790;2023-03-19T20:21:31;101040.34;;;12.35;93.20
17781;BME280;8498;52.516;13.790;2023-03-19T20:26:53;101044.91;;;12.33;93.45
17781;BME280;8498;52.516;13.790;2023-03-19T20:32:30;101047.78;;;12.30;93.22
17781;BME280;8498;52.516;13.790;2023-03-19T20:37:56;101050.34;;;12.31;93.47
17781;BME280;8498;52.516;13.790;2023-03-19T20:43:25;101056.06;;;12.25;93.61
17781;BME280;8498;52.516;13.790;2023-03-19T20:48:49;101052.16;;;12.43;93.51
17781;BME280;8498;52.516;13.790;2023-03-19T20:54:12;101053.72;;;12.59;92.05
17781;BME280;8498;52.516;13.790;2023-03-19T20:59:34;101059.28;;;12.56;91.90
17781;BME280;8498;52.516;13.790;2023-03-19T21:04:57;101058.94;;;12.47;92.29
17781;BME280;8498;52.516;13.790;2023-03-19T21:10:40;101065.69;;;12.40;92.61
17781;BME280;8498;52.516;13.790;2023-03-19T21:16:04;101060.16;;;12.31;92.48
17781;BME280;8498;52.516;13.790;2023-03-19T21:21:31;101058.97;;;12.22;92.93
17781;BME280;8498;52.516;13.790;2023-03-19T21:26:55;101055.00;;;12.15;93.80
17781;BME280;8498;52.516;13.790;2023-03-19T21:32:18;101052.56;;;12.12;93.85
17781;BME280;8498;52.516;13.790;2023-03-19T21:37:41;101050.31;;;12.06;94.48
17781;BME280;8498;52.516;13.790;2023-03-19T21:43:04;101046.06;;;12.03;94.40
17781;BME280;8498;52.516;13.790;2023-03-19T21:48:30;101043.91;;;11.96;94.92
17781;BME280;8498;52.516;13.790;2023-03-19T21:53:53;101051.03;;;11.95;94.72
17781;BME280;8498;52.516;13.790;2023-03-19T21:59:26;101041.34;;;11.94;94.89
17781;BME280;8498;52.516;13.790;2023-03-19T22:04:50;101040.72;;;11.91;94.23
17781;BME280;8498;52.516;13.790;2023-03-19T22:10:13;101042.72;;;11.87;94.97
17781;BME280;8498;52.516;13.790;2023-03-19T22:15:36;101045.59;;;11.84;95.24
17781;BME280;8498;52.516;13.790;2023-03-19T22:20:59;101031.66;;;11.81;95.42
17781;BME280;8498;52.516;13.790;2023-03-19T22:26:31;101036.03;;;11.82;95.83
17781;BME280;8498;52.516;13.790;2023-03-19T22:31:55;101031.94;;;11.76;95.51
17781;BME280;8498;52.516;13.790;2023-03-19T22:37:24;101042.78;;;11.73;95.83
17781;BME280;8498;52.516;13.790;2023-03-19T22:42:47;101040.63;;;11.65;96.74
17781;BME280;8498;52.516;13.790;2023-03-19T22:48:12;101044.22;;;11.64;96.66
17781;BME280;8498;52.516;13.790;2023-03-19T22:53:36;101035.53;;;11.62;96.33
17781;BME280;8498;52.516;13.790;2023-03-19T22:58:59;101039.41;;;11.84;97.75
17781;BME280;8498;52.516;13.790;2023-03-19T23:04:30;101041.78;;;11.88;96.89
17781;BME280;8498;52.516;13.790;2023-03-19T23:09:53;101027.59;;;11.88;96.53
17781;BME280;8498;52.516;13.790;2023-03-19T23:15:16;101025.16;;;11.85;95.74
17781;BME280;8498;52.516;13.790;2023-03-19T23:20:38;101027.56;;;11.75;96.30
17781;BME280;8498;52.516;13.790;2023-03-19T23:26:03;101030.63;;;11.69;96.54
17781;BME280;8498;52.516;13.790;2023-03-19T23:31:25;101026.56;;;11.63;96.56
17781;BME280;8498;52.516;13.790;2023-03-19T23:36:48;101030.41;;;11.59;96.80
17781;BME280;8498;52.516;13.790;2023-03-19T23:42:19;101033.34;;;11.55;96.88
17781;BME280;8498;52.516;13.790;2023-03-19T23:47:45;101034.44;;;11.52;97.34
17781;BME280;8498;52.516;13.790;2023-03-19T23:58:41;101032.31;;;11.57;96.69
